sensor_id;sensor_type;location;lat;lon;timestamp;P1;durP1;ratioP1;P2;durP2;ratioP2
45812;SDS011;31519;45.408;10.962;2022-10-19T00:01:17;63.88;;;37.95;;
45812;SDS011;31519;45.408;10.962;2022-10-19T00:03:49;73.05;;;37.55;;
45812;SDS011;31519;45.408;10.962;2022-10-19T00:08:59;78.03;;;39.00;;
45812;SDS011;31519;45.408;10.962;2022-10-19T00:11:29;73.30;;;37.33;;
45812;SDS011;31519;45.408;10.962;2022-10-19T00:14:00;95.60;;;41.17;;
45812;SDS011;31519;45.408;10.962;2022-10-19T00:16:30;71.47;;;38.35;;
45812;SDS011;31519;45.408;10.962;2022-10-19T00:19:00;70.45;;;39.53;;
45812;SDS011;31519;45.408;10.962;2022-10-19T00:21:32;75.40;;;40.30;;
45812;SDS011;31519;45.408;10.962;2022-10-19T00:24:00;69.50;;;39.85;;
45812;SDS011;31519;45.408;10.962;2022-10-19T00:26:28;67.90;;;38.38;;
45812;SDS011;31519;45.408;10.962;2022-10-19T00:28:56;69.60;;;38.50;;
45812;SDS011;31519;45.408;10.962;2022-10-19T00:31:25;73.25;;;40.95;;
45812;SDS011;31519;45.408;10.962;2022-10-19T00:33:54;77.72;;;40.95;;
45812;SDS011;31519;45.408;10.962;2022-10-19T00:36:25;85.78;;;41.60;;
45812;SDS011;31519;45.408;10.962;2022-10-19T00:38:57;75.50;;;38.17;;
45812;SDS011;31519;45.408;10.962;2022-10-19T00:41:27;79.45;;;40.58;;
45812;SDS011;31519;45.408;10.962;2022-10-19T00:43:58;84.22;;;41.85;;
45812;SDS011;31519;45.408;10.962;2022-10-19T00:46:28;75.30;;;38.65;;
45812;SDS011;31519;45.408;10.962;2022-10-19T00:48:59;72.32;;;40.13;;
45812;SDS011;31519;45.408;10.962;2022-10-19T00:51:38;74.85;;;39.47;;
45812;SDS011;31519;45.408;10.962;2022-10-19T00:54:09;88.55;;;43.30;;
45812;SDS011;31519;45.408;10.962;2022-10-19T00:56:38;75.22;;;41.92;;
45812;SDS011;31519;45.408;10.962;2022-10-19T00:59:08;76.10;;;41.20;;
45812;SDS011;31519;45.408;10.962;2022-10-19T01:01:40;77.00;;;41.17;;
45812;SDS011;31519;45.408;10.962;2022-10-19T01:04:11;87.22;;;43.53;;
45812;SDS011;31519;45.408;10.962;2022-10-19T01:06:40;78.95;;;43.10;;
45812;SDS011;31519;45.408;10.962;2022-10-19T01:09:08;74.55;;;39.72;;
45812;SDS011;31519;45.408;10.962;2022-10-19T01:14:23;76.60;;;40.80;;
45812;SDS011;31519;45.408;10.962;2022-10-19T01:17:20;79.20;;;41.33;;
45812;SDS011;31519;45.408;10.962;2022-10-19T01:38:05;74.90;;;37.83;;
45812;SDS011;31519;45.408;10.962;2022-10-19T01:40:52;78.93;;;41.05;;
45812;SDS011;31519;45.408;10.962;2022-10-19T01:46:20;75.63;;;41.03;;
45812;SDS011;31519;45.408;10.962;2022-10-19T01:48:58;79.60;;;40.95;;
45812;SDS011;31519;45.408;10.962;2022-10-19T01:51:51;78.15;;;40.25;;
45812;SDS011;31519;45.408;10.962;2022-10-19T01:54:27;78.80;;;41.53;;
45812;SDS011;31519;45.408;10.962;2022-10-19T01:57:03;82.82;;;41.97;;
45812;SDS011;31519;45.408;10.962;2022-10-19T01:59:34;74.18;;;38.83;;
45812;SDS011;31519;45.408;10.962;2022-10-19T02:02:07;73.15;;;39.60;;
45812;SDS011;31519;45.408;10.962;2022-10-19T02:04:37;82.30;;;42.90;;
45812;SDS011;31519;45.408;10.962;2022-10-19T02:07:07;78.75;;;42.42;;
45812;SDS011;31519;45.408;10.962;2022-10-19T02:09:37;82.68;;;39.90;;
45812;SDS011;31519;45.408;10.962;2022-10-19T02:12:07;82.10;;;39.45;;
45812;SDS011;31519;45.408;10.962;2022-10-19T02:14:48;80.82;;;40.78;;
45812;SDS011;31519;45.408;10.962;2022-10-19T02:17:21;84.60;;;42.47;;
45812;SDS011;31519;45.408;10.962;2022-10-19T02:22:22;75.15;;;39.33;;
45812;SDS011;31519;45.408;10.962;2022-10-19T02:24:50;68.88;;;38.53;;
45812;SDS011;31519;45.408;10.962;2022-10-19T02:27:18;82.15;;;39.80;;
45812;SDS011;31519;45.408;10.962;2022-10-19T02:29:47;82.82;;;38.92;;
45812;SDS011;31519;45.408;10.962;2022-10-19T02:32:15;83.03;;;40.85;;
45812;SDS011;31519;45.408;10.962;2022-10-19T02:34:43;75.88;;;41.22;;
45812;SDS011;31519;45.408;10.962;2022-10-19T02:37:12;76.63;;;39.40;;
45812;SDS011;31519;45.408;10.962;2022-10-19T02:39:40;73.22;;;40.97;;
45812;SDS011;31519;45.408;10.962;2022-10-19T02:42:10;78.38;;;40.95;;
45812;SDS011;31519;45.408;10.962;2022-10-19T02:47:36;70.28;;;38.88;;
45812;SDS011;31519;45.408;10.962;2022-10-19T02:50:18;81.60;;;40.92;;
45812;SDS011;31519;45.408;10.962;2022-10-19T02:52:48;82.72;;;40.90;;
45812;SDS011;31519;45.408;10.962;2022-10-19T02:55:16;67.68;;;37.78;;
45812;SDS011;31519;45.408;10.962;2022-10-19T02:57:44;81.57;;;43.03;;
45812;SDS011;31519;45.408;10.962;2022-10-19T03:00:12;79.72;;;40.13;;
45812;SDS011;31519;45.408;10.962;2022-10-19T03:02:41;79.95;;;37.75;;
45812;SDS011;31519;45.408;10.962;2022-10-19T03:05:09;81.18;;;40.35;;
45812;SDS011;31519;45.408;10.962;2022-10-19T03:07:37;81.80;;;38.13;;
45812;SDS011;31519;45.408;10.962;2022-10-19T03:10:06;74.10;;;39.05;;
45812;SDS011;31519;45.408;10.962;2022-10-19T03:12:34;65.07;;;37.85;;
45812;SDS011;31519;45.408;10.962;2022-10-19T03:15:02;76.60;;;39.88;;
45812;SDS011;31519;45.408;10.962;2022-10-19T03:17:31;71.10;;;39.10;;
45812;SDS011;31519;45.408;10.962;2022-10-19T03:20:00;70.75;;;37.95;;
45812;SDS011;31519;45.408;10.962;2022-10-19T03:22:29;82.03;;;39.08;;
45812;SDS011;31519;45.408;10.962;2022-10-19T03:24:57;77.10;;;41.38;;
45812;SDS011;31519;45.408;10.962;2022-10-19T03:27:25;78.20;;;39.30;;
45812;SDS011;31519;45.408;10.962;2022-10-19T03:29:53;75.32;;;40.58;;
45812;SDS011;31519;45.408;10.962;2022-10-19T03:32:22;84.53;;;40.92;;
45812;SDS011;31519;45.408;10.962;2022-10-19T03:34:50;81.53;;;41.33;;
45812;SDS011;31519;45.408;10.962;2022-10-19T03:37:18;73.85;;;40.97;;
45812;SDS011;31519;45.408;10.962;2022-10-19T03:39:46;68.57;;;37.25;;
45812;SDS011;31519;45.408;10.962;2022-10-19T03:42:14;76.47;;;41.63;;
45812;SDS011;31519;45.408;10.962;2022-10-19T03:44:42;83.38;;;41.38;;
45812;SDS011;31519;45.408;10.962;2022-10-19T03:47:10;79.10;;;40.72;;
45812;SDS011;31519;45.408;10.962;2022-10-19T03:49:38;82.80;;;41.83;;
45812;SDS011;31519;45.408;10.962;2022-10-19T03:52:07;79.72;;;41.20;;
45812;SDS011;31519;45.408;10.962;2022-10-19T03:54:36;90.40;;;41.45;;
45812;SDS011;31519;45.408;10.962;2022-10-19T03:57:05;92.60;;;44.17;;
45812;SDS011;31519;45.408;10.962;2022-10-19T03:59:33;83.78;;;43.25;;
45812;SDS011;31519;45.408;10.962;2022-10-19T04:02:01;81.25;;;42.20;;
45812;SDS011;31519;45.408;10.962;2022-10-19T04:04:29;92.10;;;45.92;;
45812;SDS011;31519;45.408;10.962;2022-10-19T04:06:58;75.57;;;40.65;;
45812;SDS011;31519;45.408;10.962;2022-10-19T04:09:26;88.88;;;43.40;;
45812;SDS011;31519;45.408;10.962;2022-10-19T04:11:54;75.55;;;41.25;;
45812;SDS011;31519;45.408;10.962;2022-10-19T04:14:22;79.60;;;41.42;;
45812;SDS011;31519;45.408;10.962;2022-10-19T04:17:00;85.80;;;42.95;;
45812;SDS011;31519;45.408;10.962;2022-10-19T04:19:28;95.50;;;46.72;;
45812;SDS011;31519;45.408;10.962;2022-10-19T04:21:57;88.30;;;43.25;;
45812;SDS011;31519;45.408;10.962;2022-10-19T04:24:26;79.82;;;41.70;;
45812;SDS011;31519;45.408;10.962;2022-10-19T04:26:55;88.38;;;42.33;;
45812;SDS011;31519;45.408;10.962;2022-10-19T04:29:24;81.65;;;43.50;;
45812;SDS011;31519;45.408;10.962;2022-10-19T04:31:57;95.47;;;46.45;;
45812;SDS011;31519;45.408;10.962;2022-10-19T04:34:26;82.55;;;40.70;;
45812;SDS011;31519;45.408;10.962;2022-10-19T04:36:54;92.28;;;43.90;;
45812;SDS011;31519;45.408;10.962;2022-10-19T04:39:26;92.75;;;43.45;;
45812;SDS011;31519;45.408;10.962;2022-10-19T04:41:54;98.95;;;45.17;;
45812;SDS011;31519;45.408;10.962;2022-10-19T04:44:22;94.43;;;42.40;;
45812;SDS011;31519;45.408;10.962;2022-10-19T04:46:55;90.80;;;42.58;;
45812;SDS011;31519;45.408;10.962;2022-10-19T04:49:24;86.90;;;42.40;;
45812;SDS011;31519;45.408;10.962;2022-10-19T04:51:52;86.20;;;41.78;;
45812;SDS011;31519;45.408;10.962;2022-10-19T04:54:20;77.85;;;41.97;;
45812;SDS011;31519;45.408;10.962;2022-10-19T04:56:48;87.85;;;41.60;;
45812;SDS011;31519;45.408;10.962;2022-10-19T04:59:16;89.47;;;43.05;;
45812;SDS011;31519;45.408;10.962;2022-10-19T05:01:44;88.55;;;45.88;;
45812;SDS011;31519;45.408;10.962;2022-10-19T05:04:13;94.40;;;45.28;;
45812;SDS011;31519;45.408;10.962;2022-10-19T05:06:42;88.15;;;45.42;;
45812;SDS011;31519;45.408;10.962;2022-10-19T05:09:10;90.03;;;44.25;;
45812;SDS011;31519;45.408;10.962;2022-10-19T05:11:38;91.50;;;41.90;;
45812;SDS011;31519;45.408;10.962;2022-10-19T05:14:07;90.97;;;44.88;;
45812;SDS011;31519;45.408;10.962;2022-10-19T05:16:35;92.38;;;44.38;;
45812;SDS011;31519;45.408;10.962;2022-10-19T05:19:03;83.43;;;43.08;;
45812;SDS011;31519;45.408;10.962;2022-10-19T05:21:32;87.43;;;44.22;;
45812;SDS011;31519;45.408;10.962;2022-10-19T05:24:01;86.88;;;44.55;;
45812;SDS011;31519;45.408;10.962;2022-10-19T05:26:30;89.97;;;42.13;;
45812;SDS011;31519;45.408;10.962;2022-10-19T05:28:58;79.32;;;42.67;;
45812;SDS011;31519;45.408;10.962;2022-10-19T05:31:32;84.90;;;41.88;;
45812;SDS011;31519;45.408;10.962;2022-10-19T05:34:00;78.10;;;40.85;;
45812;SDS011;31519;45.408;10.962;2022-10-19T05:36:35;95.18;;;41.70;;
45812;SDS011;31519;45.408;10.962;2022-10-19T05:39:11;98.10;;;43.67;;
45812;SDS011;31519;45.408;10.962;2022-10-19T05:41:42;90.90;;;42.70;;
45812;SDS011;31519;45.408;10.962;2022-10-19T05:44:15;86.95;;;42.97;;
45812;SDS011;31519;45.408;10.962;2022-10-19T05:46:50;95.07;;;43.83;;
45812;SDS011;31519;45.408;10.962;2022-10-19T05:49:19;90.47;;;41.90;;
45812;SDS011;31519;45.408;10.962;2022-10-19T05:51:49;86.47;;;41.88;;
45812;SDS011;31519;45.408;10.962;2022-10-19T05:54:17;88.78;;;43.05;;
45812;SDS011;31519;45.408;10.962;2022-10-19T05:56:51;83.18;;;40.28;;
45812;SDS011;31519;45.408;10.962;2022-10-19T05:59:19;87.55;;;42.20;;
45812;SDS011;31519;45.408;10.962;2022-10-19T06:01:48;90.40;;;45.53;;
45812;SDS011;31519;45.408;10.962;2022-10-19T06:04:17;87.13;;;43.22;;
45812;SDS011;31519;45.408;10.962;2022-10-19T06:06:46;91.43;;;41.83;;
45812;SDS011;31519;45.408;10.962;2022-10-19T06:09:15;76.03;;;40.58;;
45812;SDS011;31519;45.408;10.962;2022-10-19T06:11:43;85.78;;;42.03;;
45812;SDS011;31519;45.408;10.962;2022-10-19T06:14:13;87.30;;;41.90;;
45812;SDS011;31519;45.408;10.962;2022-10-19T06:16:43;79.10;;;41.30;;
45812;SDS011;31519;45.408;10.962;2022-10-19T06:19:12;84.90;;;41.55;;
45812;SDS011;31519;45.408;10.962;2022-10-19T06:21:42;84.55;;;43.28;;
45812;SDS011;31519;45.408;10.962;2022-10-19T06:24:12;103.30;;;42.38;;
45812;SDS011;31519;45.408;10.962;2022-10-19T06:26:41;84.78;;;41.58;;
45812;SDS011;31519;45.408;10.962;2022-10-19T06:29:09;88.30;;;42.72;;
45812;SDS011;31519;45.408;10.962;2022-10-19T06:31:38;86.80;;;41.58;;
45812;SDS011;31519;45.408;10.962;2022-10-19T06:34:06;90.13;;;41.92;;
45812;SDS011;31519;45.408;10.962;2022-10-19T06:36:35;87.28;;;41.70;;
45812;SDS011;31519;45.408;10.962;2022-10-19T06:39:03;82.85;;;41.20;;
45812;SDS011;31519;45.408;10.962;2022-10-19T06:41:31;84.65;;;39.88;;
45812;SDS011;31519;45.408;10.962;2022-10-19T06:44:17;87.20;;;39.35;;
45812;SDS011;31519;45.408;10.962;2022-10-19T06:46:46;88.75;;;39.50;;
45812;SDS011;31519;45.408;10.962;2022-10-19T06:49:14;94.75;;;42.45;;
45812;SDS011;31519;45.408;10.962;2022-10-19T06:51:42;77.05;;;40.13;;
45812;SDS011;31519;45.408;10.962;2022-10-19T06:54:10;98.65;;;42.83;;
45812;SDS011;31519;45.408;10.962;2022-10-19T06:56:38;90.38;;;41.45;;
45812;SDS011;31519;45.408;10.962;2022-10-19T06:59:07;85.38;;;40.83;;
45812;SDS011;31519;45.408;10.962;2022-10-19T07:01:35;87.45;;;40.92;;
45812;SDS011;31519;45.408;10.962;2022-10-19T07:04:03;79.47;;;38.40;;
45812;SDS011;31519;45.408;10.962;2022-10-19T07:06:32;77.38;;;39.63;;
45812;SDS011;31519;45.408;10.962;2022-10-19T07:09:00;77.80;;;39.00;;
45812;SDS011;31519;45.408;10.962;2022-10-19T07:11:29;90.80;;;40.65;;
45812;SDS011;31519;45.408;10.962;2022-10-19T07:13:58;98.35;;;40.67;;
45812;SDS011;31519;45.408;10.962;2022-10-19T07:16:27;89.55;;;41.25;;
45812;SDS011;31519;45.408;10.962;2022-10-19T07:18:55;87.00;;;43.15;;
45812;SDS011;31519;45.408;10.962;2022-10-19T07:21:23;96.97;;;46.03;;
45812;SDS011;31519;45.408;10.962;2022-10-19T07:23:51;92.13;;;45.00;;
45812;SDS011;31519;45.408;10.962;2022-10-19T07:26:25;89.57;;;46.88;;
45812;SDS011;31519;45.408;10.962;2022-10-19T07:28:56;98.28;;;47.70;;
45812;SDS011;31519;45.408;10.962;2022-10-19T07:31:25;91.45;;;46.50;;
45812;SDS011;31519;45.408;10.962;2022-10-19T07:33:56;93.25;;;48.28;;
45812;SDS011;31519;45.408;10.962;2022-10-19T07:36:26;106.63;;;48.47;;
45812;SDS011;31519;45.408;10.962;2022-10-19T07:38:56;89.63;;;46.58;;
45812;SDS011;31519;45.408;10.962;2022-10-19T07:41:25;93.85;;;47.65;;
45812;SDS011;31519;45.408;10.962;2022-10-19T07:43:54;98.25;;;48.47;;
45812;SDS011;31519;45.408;10.962;2022-10-19T07:46:25;96.28;;;48.20;;
45812;SDS011;31519;45.408;10.962;2022-10-19T07:48:56;89.70;;;48.40;;
45812;SDS011;31519;45.408;10.962;2022-10-19T07:51:25;92.20;;;48.05;;
45812;SDS011;31519;45.408;10.962;2022-10-19T07:53:58;94.25;;;50.10;;
45812;SDS011;31519;45.408;10.962;2022-10-19T07:56:27;99.00;;;46.92;;
45812;SDS011;31519;45.408;10.962;2022-10-19T07:58:56;97.50;;;45.15;;
45812;SDS011;31519;45.408;10.962;2022-10-19T08:01:27;101.25;;;49.10;;
45812;SDS011;31519;45.408;10.962;2022-10-19T08:03:57;86.95;;;45.60;;
45812;SDS011;31519;45.408;10.962;2022-10-19T08:06:47;91.10;;;44.97;;
45812;SDS011;31519;45.408;10.962;2022-10-19T08:09:15;108.03;;;46.03;;
45812;SDS011;31519;45.408;10.962;2022-10-19T08:12:04;100.70;;;47.83;;
45812;SDS011;31519;45.408;10.962;2022-10-19T08:14:37;87.95;;;45.25;;
45812;SDS011;31519;45.408;10.962;2022-10-19T08:17:05;99.95;;;46.45;;
45812;SDS011;31519;45.408;10.962;2022-10-19T08:19:35;100.38;;;47.30;;
45812;SDS011;31519;45.408;10.962;2022-10-19T08:22:08;104.95;;;45.92;;
45812;SDS011;31519;45.408;10.962;2022-10-19T08:24:37;94.22;;;43.42;;
45812;SDS011;31519;45.408;10.962;2022-10-19T08:27:05;92.22;;;43.58;;
45812;SDS011;31519;45.408;10.962;2022-10-19T08:29:33;97.15;;;44.05;;
45812;SDS011;31519;45.408;10.962;2022-10-19T08:32:01;96.13;;;46.60;;
45812;SDS011;31519;45.408;10.962;2022-10-19T08:34:30;91.70;;;46.47;;
45812;SDS011;31519;45.408;10.962;2022-10-19T08:37:00;97.13;;;46.25;;
45812;SDS011;31519;45.408;10.962;2022-10-19T08:39:46;89.30;;;45.08;;
45812;SDS011;31519;45.408;10.962;2022-10-19T08:42:18;101.50;;;45.88;;
45812;SDS011;31519;45.408;10.962;2022-10-19T08:44:56;80.28;;;43.00;;
45812;SDS011;31519;45.408;10.962;2022-10-19T08:50:43;77.30;;;43.23;;
45812;SDS011;31519;45.408;10.962;2022-10-19T08:53:22;88.82;;;42.80;;
45812;SDS011;31519;45.408;10.962;2022-10-19T08:56:31;75.00;;;40.92;;
45812;SDS011;31519;45.408;10.962;2022-10-19T08:59:25;80.65;;;42.83;;
45812;SDS011;31519;45.408;10.962;2022-10-19T09:02:25;80.55;;;41.97;;
45812;SDS011;31519;45.408;10.962;2022-10-19T09:05:04;87.68;;;42.25;;
45812;SDS011;31519;45.408;10.962;2022-10-19T09:07:43;74.95;;;42.53;;
45812;SDS011;31519;45.408;10.962;2022-10-19T09:12:59;81.85;;;41.78;;
45812;SDS011;31519;45.408;10.962;2022-10-19T09:15:49;79.53;;;40.55;;
45812;SDS011;31519;45.408;10.962;2022-10-19T09:18:23;70.82;;;41.80;;
45812;SDS011;31519;45.408;10.962;2022-10-19T09:26:01;70.47;;;39.15;;
45812;SDS011;31519;45.408;10.962;2022-10-19T09:28:54;86.53;;;43.25;;
45812;SDS011;31519;45.408;10.962;2022-10-19T09:31:39;77.78;;;39.85;;
45812;SDS011;31519;45.408;10.962;2022-10-19T09:34:12;78.43;;;40.33;;
45812;SDS011;31519;45.408;10.962;2022-10-19T09:36:56;80.75;;;40.28;;
45812;SDS011;31519;45.408;10.962;2022-10-19T09:39:27;76.40;;;40.30;;
45812;SDS011;31519;45.408;10.962;2022-10-19T09:42:04;83.63;;;38.95;;
45812;SDS011;31519;45.408;10.962;2022-10-19T09:44:34;83.70;;;40.72;;
45812;SDS011;31519;45.408;10.962;2022-10-19T09:50:05;74.85;;;40.85;;
45812;SDS011;31519;45.408;10.962;2022-10-19T09:52:36;75.85;;;39.90;;
45812;SDS011;31519;45.408;10.962;2022-10-19T09:55:16;72.55;;;40.92;;
45812;SDS011;31519;45.408;10.962;2022-10-19T09:58:02;82.32;;;38.75;;
45812;SDS011;31519;45.408;10.962;2022-10-19T10:00:32;84.35;;;43.50;;
45812;SDS011;31519;45.408;10.962;2022-10-19T10:03:04;74.20;;;41.10;;
45812;SDS011;31519;45.408;10.962;2022-10-19T10:05:35;72.88;;;40.28;;
45812;SDS011;31519;45.408;10.962;2022-10-19T10:08:13;74.07;;;39.17;;
45812;SDS011;31519;45.408;10.962;2022-10-19T10:10:46;74.60;;;40.97;;
45812;SDS011;31519;45.408;10.962;2022-10-19T10:13:22;82.03;;;40.22;;
45812;SDS011;31519;45.408;10.962;2022-10-19T10:15:57;78.82;;;41.42;;
45812;SDS011;31519;45.408;10.962;2022-10-19T10:18:28;76.97;;;42.38;;
45812;SDS011;31519;45.408;10.962;2022-10-19T10:23:42;83.63;;;43.60;;
45812;SDS011;31519;45.408;10.962;2022-10-19T10:26:17;80.68;;;44.58;;
45812;SDS011;31519;45.408;10.962;2022-10-19T10:28:47;77.13;;;44.67;;
45812;SDS011;31519;45.408;10.962;2022-10-19T10:31:19;94.88;;;44.75;;
45812;SDS011;31519;45.408;10.962;2022-10-19T10:33:53;80.63;;;45.10;;
45812;SDS011;31519;45.408;10.962;2022-10-19T10:36:43;75.18;;;43.95;;
45812;SDS011;31519;45.408;10.962;2022-10-19T10:39:12;76.65;;;44.47;;
45812;SDS011;31519;45.408;10.962;2022-10-19T10:41:43;82.33;;;44.93;;
45812;SDS011;31519;45.408;10.962;2022-10-19T10:44:19;78.25;;;44.22;;
45812;SDS011;31519;45.408;10.962;2022-10-19T10:46:54;82.30;;;46.80;;
45812;SDS011;31519;45.408;10.962;2022-10-19T10:49:26;89.50;;;45.60;;
45812;SDS011;31519;45.408;10.962;2022-10-19T10:51:57;82.25;;;48.30;;
45812;SDS011;31519;45.408;10.962;2022-10-19T10:54:31;84.38;;;45.75;;
45812;SDS011;31519;45.408;10.962;2022-10-19T10:59:46;87.25;;;49.42;;
45812;SDS011;31519;45.408;10.962;2022-10-19T11:05:24;99.00;;;50.58;;
45812;SDS011;31519;45.408;10.962;2022-10-19T11:08:00;96.03;;;49.55;;
45812;SDS011;31519;45.408;10.962;2022-10-19T11:10:47;90.10;;;48.55;;
45812;SDS011;31519;45.408;10.962;2022-10-19T11:13:30;89.90;;;49.22;;
45812;SDS011;31519;45.408;10.962;2022-10-19T11:16:13;82.13;;;47.20;;
45812;SDS011;31519;45.408;10.962;2022-10-19T11:18:47;99.20;;;50.22;;
45812;SDS011;31519;45.408;10.962;2022-10-19T11:29:43;88.95;;;48.58;;
45812;SDS011;31519;45.408;10.962;2022-10-19T11:32:34;82.53;;;45.38;;
45812;SDS011;31519;45.408;10.962;2022-10-19T11:38:15;83.43;;;45.70;;
45812;SDS011;31519;45.408;10.962;2022-10-19T11:49:50;84.30;;;44.63;;
45812;SDS011;31519;45.408;10.962;2022-10-19T12:00:16;77.80;;;45.15;;
45812;SDS011;31519;45.408;10.962;2022-10-19T12:12:04;72.35;;;44.90;;
45812;SDS011;31519;45.408;10.962;2022-10-19T12:14:42;73.32;;;39.72;;
45812;SDS011;31519;45.408;10.962;2022-10-19T12:17:20;90.63;;;45.22;;
45812;SDS011;31519;45.408;10.962;2022-10-19T12:19:55;75.97;;;40.38;;
45812;SDS011;31519;45.408;10.962;2022-10-19T12:22:28;80.18;;;40.75;;
45812;SDS011;31519;45.408;10.962;2022-10-19T12:24:58;67.80;;;41.20;;
45812;SDS011;31519;45.408;10.962;2022-10-19T12:27:34;74.15;;;42.88;;
45812;SDS011;31519;45.408;10.962;2022-10-19T12:30:11;89.82;;;42.08;;
45812;SDS011;31519;45.408;10.962;2022-10-19T12:35:54;73.00;;;41.78;;
45812;SDS011;31519;45.408;10.962;2022-10-19T12:38:50;77.47;;;42.70;;
45812;SDS011;31519;45.408;10.962;2022-10-19T12:47:25;68.88;;;39.65;;
45812;SDS011;31519;45.408;10.962;2022-10-19T12:49:53;94.25;;;43.78;;
45812;SDS011;31519;45.408;10.962;2022-10-19T12:55:25;73.07;;;39.40;;
45812;SDS011;31519;45.408;10.962;2022-10-19T12:57:58;62.22;;;36.83;;
45812;SDS011;31519;45.408;10.962;2022-10-19T13:00:33;63.83;;;36.92;;
45812;SDS011;31519;45.408;10.962;2022-10-19T13:03:15;50.55;;;28.38;;
45812;SDS011;31519;45.408;10.962;2022-10-19T13:05:58;52.78;;;28.30;;
45812;SDS011;31519;45.408;10.962;2022-10-19T13:08:31;56.67;;;28.05;;
45812;SDS011;31519;45.408;10.962;2022-10-19T13:11:11;54.50;;;29.50;;
45812;SDS011;31519;45.408;10.962;2022-10-19T13:43:25;59.42;;;35.97;;
45812;SDS011;31519;45.408;10.962;2022-10-19T13:51:31;62.55;;;33.40;;
45812;SDS011;31519;45.408;10.962;2022-10-19T13:57:09;65.55;;;32.25;;
45812;SDS011;31519;45.408;10.962;2022-10-19T14:16:47;56.63;;;31.73;;
45812;SDS011;31519;45.408;10.962;2022-10-19T14:19:29;61.10;;;33.28;;
45812;SDS011;31519;45.408;10.962;2022-10-19T14:22:43;58.92;;;32.60;;
45812;SDS011;31519;45.408;10.962;2022-10-19T14:27:32;73.60;;;36.05;;
45812;SDS011;31519;45.408;10.962;2022-10-19T14:30:02;60.42;;;35.83;;
45812;SDS011;31519;45.408;10.962;2022-10-19T14:32:32;60.92;;;33.88;;
45812;SDS011;31519;45.408;10.962;2022-10-19T14:35:03;59.25;;;31.40;;
45812;SDS011;31519;45.408;10.962;2022-10-19T14:37:45;60.40;;;33.78;;
45812;SDS011;31519;45.408;10.962;2022-10-19T14:42:55;53.25;;;26.02;;
45812;SDS011;31519;45.408;10.962;2022-10-19T14:45:26;41.97;;;25.15;;
45812;SDS011;31519;45.408;10.962;2022-10-19T14:48:00;48.67;;;25.50;;
45812;SDS011;31519;45.408;10.962;2022-10-19T14:50:43;46.95;;;25.70;;
45812;SDS011;31519;45.408;10.962;2022-10-19T14:53:32;48.45;;;25.73;;
45812;SDS011;31519;45.408;10.962;2022-10-19T14:56:11;38.58;;;25.90;;
45812;SDS011;31519;45.408;10.962;2022-10-19T14:58:48;55.50;;;29.70;;
45812;SDS011;31519;45.408;10.962;2022-10-19T15:01:51;46.75;;;29.80;;
45812;SDS011;31519;45.408;10.962;2022-10-19T15:04:33;50.33;;;31.30;;
45812;SDS011;31519;45.408;10.962;2022-10-19T15:07:12;53.95;;;30.48;;
45812;SDS011;31519;45.408;10.962;2022-10-19T15:10:05;56.80;;;31.92;;
45812;SDS011;31519;45.408;10.962;2022-10-19T15:12:49;47.65;;;32.85;;
45812;SDS011;31519;45.408;10.962;2022-10-19T15:15:24;61.92;;;33.00;;
45812;SDS011;31519;45.408;10.962;2022-10-19T15:17:55;72.18;;;32.60;;
45812;SDS011;31519;45.408;10.962;2022-10-19T15:20:28;69.30;;;33.60;;
45812;SDS011;31519;45.408;10.962;2022-10-19T15:26:14;57.40;;;32.70;;
45812;SDS011;31519;45.408;10.962;2022-10-19T15:28:52;67.22;;;33.95;;
45812;SDS011;31519;45.408;10.962;2022-10-19T15:31:27;64.60;;;32.78;;
45812;SDS011;31519;45.408;10.962;2022-10-19T15:33:57;52.53;;;30.83;;
45812;SDS011;31519;45.408;10.962;2022-10-19T15:36:28;66.78;;;33.28;;
45812;SDS011;31519;45.408;10.962;2022-10-19T15:41:52;54.97;;;32.85;;
45812;SDS011;31519;45.408;10.962;2022-10-19T15:44:30;70.03;;;33.92;;
45812;SDS011;31519;45.408;10.962;2022-10-19T15:52:13;65.15;;;34.60;;
45812;SDS011;31519;45.408;10.962;2022-10-19T15:54:46;65.78;;;32.03;;
45812;SDS011;31519;45.408;10.962;2022-10-19T15:57:29;69.47;;;33.75;;
45812;SDS011;31519;45.408;10.962;2022-10-19T16:00:09;75.05;;;33.72;;
45812;SDS011;31519;45.408;10.962;2022-10-19T16:02:41;74.50;;;34.50;;
45812;SDS011;31519;45.408;10.962;2022-10-19T16:05:09;64.15;;;33.90;;
45812;SDS011;31519;45.408;10.962;2022-10-19T16:07:39;71.70;;;33.25;;
45812;SDS011;31519;45.408;10.962;2022-10-19T16:10:13;69.63;;;32.25;;
45812;SDS011;31519;45.408;10.962;2022-10-19T16:12:43;117.82;;;51.60;;
45812;SDS011;31519;45.408;10.962;2022-10-19T16:15:12;84.53;;;39.13;;
45812;SDS011;31519;45.408;10.962;2022-10-19T16:17:50;85.28;;;37.03;;
45812;SDS011;31519;45.408;10.962;2022-10-19T16:20:25;76.45;;;32.85;;
45812;SDS011;31519;45.408;10.962;2022-10-19T16:22:55;81.43;;;33.47;;
45812;SDS011;31519;45.408;10.962;2022-10-19T16:25:23;84.22;;;35.28;;
45812;SDS011;31519;45.408;10.962;2022-10-19T16:27:51;72.82;;;34.60;;
45812;SDS011;31519;45.408;10.962;2022-10-19T16:30:19;79.60;;;35.22;;
45812;SDS011;31519;45.408;10.962;2022-10-19T16:32:48;72.53;;;33.65;;
45812;SDS011;31519;45.408;10.962;2022-10-19T16:35:16;71.43;;;33.13;;
45812;SDS011;31519;45.408;10.962;2022-10-19T16:37:44;74.15;;;34.65;;
45812;SDS011;31519;45.408;10.962;2022-10-19T16:40:12;84.53;;;32.45;;
45812;SDS011;31519;45.408;10.962;2022-10-19T16:42:40;72.63;;;32.95;;
45812;SDS011;31519;45.408;10.962;2022-10-19T16:45:09;77.78;;;32.38;;
45812;SDS011;31519;45.408;10.962;2022-10-19T16:47:37;82.38;;;35.10;;
45812;SDS011;31519;45.408;10.962;2022-10-19T16:50:06;85.85;;;33.78;;
45812;SDS011;31519;45.408;10.962;2022-10-19T16:52:35;82.30;;;32.35;;
45812;SDS011;31519;45.408;10.962;2022-10-19T16:55:03;69.13;;;31.52;;
45812;SDS011;31519;45.408;10.962;2022-10-19T16:57:32;72.68;;;32.42;;
45812;SDS011;31519;45.408;10.962;2022-10-19T17:00:00;79.47;;;33.50;;
45812;SDS011;31519;45.408;10.962;2022-10-19T17:02:28;75.38;;;32.03;;
45812;SDS011;31519;45.408;10.962;2022-10-19T17:04:56;69.82;;;33.10;;
45812;SDS011;31519;45.408;10.962;2022-10-19T17:07:25;67.28;;;31.90;;
45812;SDS011;31519;45.408;10.962;2022-10-19T17:09:53;70.90;;;32.90;;
45812;SDS011;31519;45.408;10.962;2022-10-19T17:12:21;68.35;;;34.70;;
45812;SDS011;31519;45.408;10.962;2022-10-19T17:14:49;62.35;;;31.95;;
45812;SDS011;31519;45.408;10.962;2022-10-19T17:17:18;71.50;;;32.75;;
45812;SDS011;31519;45.408;10.962;2022-10-19T17:19:46;65.68;;;32.00;;
45812;SDS011;31519;45.408;10.962;2022-10-19T17:22:15;75.13;;;32.17;;
45812;SDS011;31519;45.408;10.962;2022-10-19T17:24:43;69.78;;;31.52;;
45812;SDS011;31519;45.408;10.962;2022-10-19T17:27:13;77.95;;;33.17;;
45812;SDS011;31519;45.408;10.962;2022-10-19T17:29:42;68.40;;;33.78;;
45812;SDS011;31519;45.408;10.962;2022-10-19T17:32:11;83.07;;;35.20;;
45812;SDS011;31519;45.408;10.962;2022-10-19T17:34:39;75.38;;;34.58;;